createdAt,value
2023-03-02T08:17:48.490Z,5.33
2023-03-02T08:18:48.524Z,5.59
2023-03-02T08:19:48.375Z,5.87
2023-03-02T08:20:49.242Z,5.65
2023-03-02T08:21:49.083Z,5.80
2023-03-02T08:22:48.335Z,9.72
2023-03-02T08:23:48.151Z,13.72
2023-03-02T08:24:48.619Z,15.54
2023-03-02T08:25:47.885Z,13.94
2023-03-02T08:26:47.810Z,13.27
2023-03-02T08:27:47.724Z,11.33
2023-03-02T10:03:38.864Z,6.77
2023-03-02T10:05:38.567Z,7.33
2023-03-02T10:06:38.373Z,7.31
2023-03-02T10:07:38.267Z,6.42
2023-03-02T10:08:38.139Z,6.45
2023-03-02T10:09:38.015Z,6.28
2023-03-02T10:10:37.897Z,6.31
2023-03-02T10:11:37.790Z,6.87
2023-03-02T11:55:29.409Z,3.75
2023-03-02T11:56:29.319Z,4.24
2023-03-02T11:57:29.238Z,4.69
2023-03-02T11:58:29.154Z,4.47
2023-03-02T11:59:29.064Z,3.86
2023-03-02T12:00:28.965Z,4.09
2023-03-02T12:01:28.878Z,3.89
2023-03-02T12:02:28.798Z,4.38
2023-03-02T12:03:28.710Z,4.00
2023-03-02T12:04:28.626Z,3.88
2023-03-02T12:05:28.548Z,3.77
2023-03-02T12:06:28.420Z,3.83
2023-03-02T12:07:28.324Z,3.78
2023-03-02T12:08:28.240Z,3.80
2023-03-02T12:09:28.185Z,4.37
2023-03-02T12:10:28.061Z,4.34
2023-03-02T12:11:27.986Z,4.11
2023-03-02T12:12:27.895Z,3.31
2023-03-02T12:13:27.813Z,3.85
2023-03-02T12:14:27.744Z,4.12
2023-03-02T13:26:23.581Z,4.55
2023-03-02T14:01:20.299Z,4.10
2023-03-02T14:02:20.125Z,3.70
2023-03-02T14:03:20.006Z,3.90
2023-03-02T14:04:20.028Z,3.50
2023-03-02T14:05:19.953Z,3.45
2023-03-02T14:06:19.725Z,4.14
2023-03-02T14:07:19.631Z,3.76
2023-03-02T14:08:19.519Z,3.50
2023-03-02T14:09:19.433Z,3.78
2023-03-02T14:10:19.314Z,3.65
2023-03-02T14:11:19.211Z,2.74
2023-03-02T14:12:19.116Z,3.38
2023-03-02T14:13:19.025Z,3.04
2023-03-02T14:14:18.946Z,3.82
2023-03-02T14:15:18.902Z,3.34
2023-03-02T14:16:18.730Z,3.09
2023-03-02T14:17:18.633Z,3.41
2023-03-02T14:18:18.523Z,4.01
2023-03-02T14:19:18.524Z,3.30
2023-03-02T14:20:18.310Z,2.84
2023-03-02T14:21:18.228Z,2.97
2023-03-02T14:22:18.134Z,3.19
2023-03-02T14:23:18.051Z,5.77
2023-03-02T14:24:17.937Z,3.76
2023-03-02T14:25:17.834Z,3.57
2023-03-02T14:26:17.734Z,3.34
2023-03-02T15:25:12.777Z,2.85
2023-03-02T15:26:12.718Z,3.25
2023-03-02T15:27:12.673Z,3.23
2023-03-02T15:28:12.614Z,3.50
2023-03-02T15:29:12.546Z,2.90
2023-03-02T15:30:12.519Z,2.61
2023-03-02T15:31:12.447Z,2.82
2023-03-02T15:32:12.474Z,2.69
2023-03-02T15:33:12.315Z,2.88
2023-03-02T15:34:12.266Z,2.84
2023-03-02T15:35:12.472Z,3.06
2023-03-02T15:36:12.191Z,2.65
2023-03-02T15:37:12.111Z,2.84
2023-03-02T15:38:12.075Z,2.95
2023-03-02T15:39:12.028Z,2.55
2023-03-02T15:40:11.973Z,2.56
2023-03-02T15:41:11.926Z,2.49
2023-03-02T15:42:13.816Z,2.82
2023-03-02T15:43:11.850Z,2.91
2023-03-02T15:44:11.797Z,2.81
2023-03-02T15:45:11.738Z,2.98
2023-03-02T15:46:11.697Z,3.36
2023-03-02T15:47:11.655Z,3.07
2023-03-02T15:48:13.582Z,2.75
2023-03-02T15:49:11.576Z,3.18
2023-03-02T15:50:11.527Z,2.51
2023-03-02T15:51:11.481Z,2.53
2023-03-02T15:52:11.440Z,3.19
2023-03-02T15:53:11.398Z,3.36
2023-03-02T15:54:11.353Z,3.22
2023-03-02T15:55:11.320Z,2.78
2023-03-02T15:56:11.270Z,3.07
2023-03-02T15:57:11.224Z,3.31
2023-03-02T15:58:11.173Z,2.90
2023-03-02T15:59:11.122Z,2.85
2023-03-02T16:00:11.105Z,3.33
2023-03-02T16:01:11.134Z,2.87
2023-03-02T16:02:10.999Z,2.57
2023-03-02T16:03:10.981Z,2.92
2023-03-02T16:04:10.894Z,2.91
2023-03-02T16:05:10.863Z,3.08
2023-03-02T16:06:10.822Z,3.01
2023-03-02T16:07:10.816Z,2.63
2023-03-02T16:08:10.772Z,3.62
2023-03-02T16:09:10.709Z,2.67
2023-03-02T16:10:10.666Z,3.00
2023-03-02T16:11:10.640Z,2.68
2023-03-02T16:12:10.538Z,2.92
2023-03-02T16:13:10.490Z,2.83
2023-03-02T16:14:10.443Z,3.48
2023-03-02T16:15:10.405Z,3.16
2023-03-02T16:16:10.373Z,2.80
2023-03-02T16:17:10.249Z,2.66
2023-03-02T16:18:10.193Z,2.59
2023-03-02T16:19:10.129Z,2.64
2023-03-02T16:20:10.063Z,2.84
2023-03-02T16:21:09.987Z,3.28
2023-03-02T16:22:09.898Z,2.87
2023-03-02T16:23:09.876Z,2.85
2023-03-02T16:24:09.824Z,2.67
2023-03-02T16:25:09.774Z,3.06
2023-03-02T16:26:09.704Z,3.17
2023-03-02T16:27:09.633Z,2.45
2023-03-02T16:28:09.561Z,2.73
2023-03-02T16:29:09.497Z,2.85
2023-03-02T16:30:09.455Z,3.18
2023-03-02T16:31:09.397Z,3.47
2023-03-02T16:32:09.372Z,2.79
2023-03-02T16:33:09.195Z,3.18
2023-03-02T16:34:09.118Z,3.19
2023-03-02T16:35:08.993Z,2.96
2023-03-02T16:36:08.889Z,2.99
2023-03-02T16:37:08.789Z,2.94
2023-03-02T16:38:08.706Z,2.84
2023-03-02T16:39:08.615Z,2.76
2023-03-02T16:40:08.603Z,2.57
2023-03-02T16:41:08.401Z,3.03
2023-03-02T16:42:08.309Z,2.87
2023-03-02T16:43:08.208Z,2.56
2023-03-02T16:44:08.106Z,2.86
2023-03-02T16:45:08.086Z,2.64
2023-03-02T16:46:07.971Z,2.63
2023-03-02T16:47:07.813Z,2.96
2023-03-02T17:48:02.434Z,2.22
2023-03-02T17:49:02.349Z,2.67
2023-03-02T17:50:02.260Z,2.81
2023-03-02T17:51:02.186Z,2.79
2023-03-02T17:52:02.099Z,3.01
2023-03-02T17:53:02.028Z,2.73
2023-03-02T17:54:01.952Z,3.06
2023-03-02T17:55:01.893Z,3.09
2023-03-02T17:56:01.823Z,3.07
2023-03-02T17:57:01.743Z,3.33
2023-03-02T17:58:01.672Z,2.55
2023-03-02T17:59:01.594Z,2.72
2023-03-02T18:00:01.539Z,2.70
2023-03-02T18:01:01.479Z,2.77
2023-03-02T18:02:01.405Z,3.23
2023-03-02T18:03:01.433Z,2.86
2023-03-02T18:04:01.343Z,3.08
2023-03-02T18:05:01.201Z,2.72
2023-03-02T18:06:01.153Z,2.84
2023-03-02T18:07:01.105Z,3.11
2023-03-02T18:08:01.017Z,2.74
2023-03-02T18:09:00.938Z,2.72
2023-03-02T18:10:00.880Z,2.89
2023-03-02T18:11:00.818Z,2.56
2023-03-02T18:12:00.740Z,2.65
2023-03-02T18:13:00.697Z,2.83
2023-03-02T18:14:00.629Z,2.66
2023-03-02T18:15:00.564Z,2.76
2023-03-02T18:16:00.529Z,2.67
2023-03-02T18:17:00.434Z,2.66
2023-03-02T18:18:00.384Z,2.71
2023-03-02T18:19:00.311Z,2.46
2023-03-02T18:20:00.275Z,2.69
2023-03-02T18:21:00.213Z,3.03
2023-03-02T18:22:00.151Z,2.72
2023-03-02T18:23:00.113Z,2.92
2023-03-02T18:24:00.009Z,2.63
2023-03-02T18:24:59.953Z,2.67
2023-03-02T18:25:59.901Z,2.74
2023-03-02T18:26:59.842Z,2.78
2023-03-02T18:27:59.853Z,2.64
2023-03-02T18:28:59.725Z,2.88
2023-03-02T18:29:59.672Z,3.38
2023-03-02T18:30:59.631Z,2.93
2023-03-02T18:31:59.552Z,2.95
2023-03-02T18:32:59.499Z,3.19
2023-03-02T18:33:59.438Z,2.54
2023-03-02T18:34:59.384Z,2.83
2023-03-02T18:35:59.337Z,2.84
2023-03-02T18:36:59.270Z,3.20
2023-03-02T18:37:59.255Z,2.57
2023-03-02T18:38:59.181Z,2.92
2023-03-02T18:39:59.128Z,2.90
2023-03-02T18:40:59.094Z,2.74
2023-03-02T18:41:59.018Z,2.36
2023-03-02T18:42:58.972Z,2.47
2023-03-02T18:43:58.923Z,2.73
2023-03-02T18:44:58.874Z,2.55
2023-03-02T18:45:58.801Z,2.53
2023-03-02T18:46:58.808Z,2.28
2023-03-02T18:47:58.693Z,2.56
2023-03-02T18:48:58.644Z,3.35
2023-03-02T18:49:58.597Z,2.60
2023-03-02T18:50:58.544Z,2.19
2023-03-02T18:51:58.497Z,2.59
2023-03-02T18:52:58.465Z,2.47
2023-03-02T18:53:58.402Z,2.57
2023-03-02T18:54:58.353Z,2.82
2023-03-02T18:55:58.313Z,3.03
2023-03-02T18:56:58.250Z,2.87
2023-03-02T18:57:58.225Z,2.83
2023-03-02T18:58:58.162Z,2.56
2023-03-02T18:59:58.117Z,2.75
2023-03-02T19:00:58.125Z,3.32
2023-03-02T19:01:58.058Z,2.41
2023-03-02T19:02:57.983Z,2.35
2023-03-02T19:03:57.927Z,2.88
2023-03-02T19:04:57.883Z,2.50
2023-03-02T19:05:58.307Z,2.13
2023-03-02T19:06:57.785Z,2.30
2023-03-02T19:07:57.742Z,2.60
2023-03-02T20:26:54.948Z,2.83
2023-03-02T20:27:54.371Z,2.45
2023-03-02T20:28:54.341Z,2.66
2023-03-02T20:29:54.299Z,3.18
2023-03-02T20:30:54.305Z,2.65
2023-03-02T20:31:54.262Z,2.58
2023-03-02T20:32:54.214Z,3.14
2023-03-02T20:33:54.177Z,2.40
2023-03-02T20:34:54.115Z,2.90
2023-03-02T20:35:54.112Z,2.64
2023-03-02T20:36:54.016Z,2.81
2023-03-02T20:37:53.990Z,2.72
2023-03-02T20:38:54.013Z,2.76
2023-03-02T20:39:53.909Z,3.26
2023-03-02T20:40:53.867Z,2.92
2023-03-02T20:41:53.819Z,2.86
2023-03-02T20:42:53.776Z,2.56
2023-03-02T20:43:53.767Z,2.26
2023-03-02T20:44:53.774Z,2.45
2023-03-02T20:45:53.739Z,2.62
2023-03-02T20:46:53.638Z,2.87
2023-03-02T20:47:53.597Z,2.85
2023-03-02T20:48:53.570Z,2.85
2023-03-02T20:49:53.523Z,2.72
2023-03-02T20:50:53.484Z,2.65
2023-03-02T20:51:53.465Z,2.55
2023-03-02T20:52:53.412Z,2.30
2023-03-02T20:53:53.376Z,2.65
2023-03-02T20:54:53.342Z,2.31
2023-03-02T20:55:53.293Z,2.90
2023-03-02T20:56:53.268Z,2.34
2023-03-02T20:57:53.235Z,2.53
2023-03-02T20:58:53.215Z,2.31
2023-03-02T20:59:53.163Z,2.37
2023-03-02T21:00:53.105Z,2.66
2023-03-02T21:01:53.075Z,2.38
2023-03-02T21:02:53.040Z,2.92
2023-03-02T21:03:53.008Z,2.63
2023-03-02T21:04:53.032Z,2.53
2023-03-02T21:05:52.910Z,2.71
2023-03-02T21:06:52.896Z,2.66
2023-03-02T21:07:52.865Z,2.25
2023-03-02T21:08:52.831Z,2.45
2023-03-02T21:09:52.788Z,2.34
2023-03-02T21:10:52.798Z,2.16
2023-03-02T21:11:52.729Z,2.66
2023-03-02T21:12:52.698Z,2.41
2023-03-02T21:13:52.673Z,2.24
2023-03-02T21:14:52.628Z,2.75
2023-03-02T21:15:52.614Z,2.58
2023-03-02T21:16:52.556Z,2.43
2023-03-02T21:17:52.514Z,2.62
2023-03-02T21:18:52.486Z,2.52
2023-03-02T21:19:52.449Z,2.54
2023-03-02T21:20:52.414Z,2.74
2023-03-02T21:21:52.394Z,2.40
2023-03-02T21:22:52.987Z,2.77
2023-03-02T21:23:52.309Z,2.28
2023-03-02T21:24:52.272Z,2.63
2023-03-02T21:25:52.240Z,2.35
2023-03-02T21:26:52.206Z,2.58
2023-03-02T21:27:52.183Z,2.45
2023-03-02T21:28:52.154Z,2.47
2023-03-02T21:29:52.121Z,2.70
2023-03-02T21:30:52.109Z,2.50
2023-03-02T21:31:52.085Z,2.57
2023-03-02T21:32:52.028Z,2.57
2023-03-02T21:33:52.006Z,2.67
2023-03-02T21:34:51.967Z,2.59
2023-03-02T21:35:51.928Z,2.23
2023-03-02T21:36:51.896Z,2.63
2023-03-02T21:37:51.872Z,2.88
2023-03-02T21:38:51.832Z,2.35
2023-03-02T21:39:51.813Z,2.46
2023-03-02T21:40:51.758Z,2.47
2023-03-02T21:41:51.737Z,2.61
2023-03-02T21:42:51.680Z,2.58
2023-03-02T21:43:51.652Z,1.99
2023-03-02T21:44:51.608Z,1.84
2023-03-02T21:45:51.577Z,2.15
2023-03-02T21:46:51.544Z,2.14
2023-03-02T21:47:51.500Z,2.33
2023-03-02T21:48:51.484Z,2.00
2023-03-02T21:49:51.422Z,2.16
2023-03-02T21:50:51.404Z,2.64
2023-03-02T21:51:51.377Z,2.39
2023-03-02T21:52:51.343Z,2.28
2023-03-02T21:53:51.313Z,2.50
2023-03-02T21:54:51.283Z,2.64
2023-03-02T21:55:51.238Z,2.36
2023-03-02T21:56:51.201Z,2.42
2023-03-02T21:57:51.161Z,2.62
2023-03-02T21:58:51.143Z,2.46
2023-03-02T21:59:51.088Z,2.58
2023-03-02T22:00:51.904Z,2.47
2023-03-02T22:01:51.020Z,2.15
2023-03-02T22:02:50.982Z,2.22
2023-03-02T22:03:50.920Z,2.45
2023-03-02T22:04:50.875Z,2.34
2023-03-02T22:05:50.853Z,2.28
2023-03-02T22:06:50.818Z,2.59
2023-03-02T22:07:50.793Z,2.65
2023-03-02T22:08:50.774Z,2.58
2023-03-02T22:09:50.757Z,2.54
2023-03-02T22:10:50.692Z,2.67
2023-03-02T22:11:50.662Z,2.46
2023-03-02T22:12:50.619Z,2.56
2023-03-02T22:13:50.677Z,2.67
2023-03-02T22:14:50.556Z,2.59
2023-03-02T22:15:50.542Z,2.43
2023-03-02T22:16:50.502Z,2.25
2023-03-02T22:17:50.476Z,2.32
2023-03-02T22:18:50.450Z,2.21
2023-03-02T22:19:50.467Z,2.56
2023-03-02T22:20:50.426Z,2.35
2023-03-02T22:21:50.368Z,2.25
2023-03-02T22:22:50.335Z,2.20
2023-03-02T22:23:50.313Z,2.27
2023-03-02T22:24:50.280Z,2.59
2023-03-02T22:25:50.245Z,2.68
2023-03-02T22:26:50.222Z,2.49
2023-03-02T22:27:50.206Z,2.82
2023-03-02T22:28:50.167Z,2.26
2023-03-02T22:29:50.119Z,2.39
2023-03-02T22:30:50.081Z,2.06
2023-03-02T22:31:50.053Z,2.26
2023-03-02T22:32:50.010Z,2.45
2023-03-02T22:33:49.997Z,2.35
2023-03-02T22:34:49.958Z,2.34
2023-03-02T22:35:49.963Z,2.45
2023-03-02T22:36:49.881Z,2.12
2023-03-02T22:37:49.840Z,2.53
2023-03-02T22:38:49.817Z,2.49
2023-03-02T22:39:49.800Z,2.33
2023-03-02T22:40:49.752Z,2.24
2023-03-02T22:41:49.722Z,2.42
2023-03-02T22:42:49.761Z,2.31
2023-03-02T22:43:49.666Z,2.31
2023-03-02T22:44:49.644Z,2.21
2023-03-02T22:45:49.615Z,2.32
2023-03-02T22:46:49.588Z,2.27
2023-03-02T22:47:49.551Z,2.35
2023-03-02T22:48:49.545Z,2.57
2023-03-02T22:49:49.517Z,1.94
2023-03-02T22:50:49.512Z,2.63
2023-03-02T22:51:49.469Z,2.29
2023-03-02T22:52:49.447Z,2.26
2023-03-02T22:53:49.444Z,2.11
2023-03-02T22:54:49.400Z,2.39
2023-03-02T22:55:49.458Z,2.29
2023-03-02T22:56:49.360Z,2.51
2023-03-02T22:57:49.366Z,2.26
2023-03-02T22:58:49.314Z,2.37
2023-03-02T22:59:49.287Z,2.69
2023-03-02T23:00:49.304Z,2.33
2023-03-02T23:01:49.228Z,2.65
2023-03-02T23:02:49.197Z,2.26
2023-03-02T23:03:49.172Z,2.46
2023-03-02T23:04:49.219Z,2.65
2023-03-02T23:05:49.143Z,2.20
2023-03-02T23:06:49.093Z,2.45
2023-03-02T23:07:49.067Z,2.18
2023-03-02T23:08:49.040Z,2.43
2023-03-02T23:09:49.003Z,2.31
2023-03-02T23:10:48.973Z,2.94
2023-03-02T23:11:48.937Z,2.27
2023-03-02T23:12:48.919Z,2.66
2023-03-02T23:13:48.889Z,2.20
2023-03-02T23:14:48.872Z,2.59
2023-03-02T23:15:48.853Z,2.58
2023-03-02T23:16:48.846Z,2.43
2023-03-02T23:29:48.460Z,2.04
2023-03-02T23:30:48.430Z,2.01
2023-03-02T23:31:48.413Z,2.65
2023-03-02T23:32:48.406Z,2.27
2023-03-02T23:33:48.347Z,2.31
2023-03-02T23:34:48.283Z,2.48
2023-03-02T23:35:48.330Z,2.14
2023-03-02T23:36:48.222Z,2.18
2023-03-02T23:37:48.200Z,2.19
2023-03-02T23:38:48.152Z,2.42
2023-03-02T23:39:48.124Z,2.39
2023-03-02T23:40:48.078Z,2.29
2023-03-02T23:41:48.063Z,2.55
2023-03-02T23:42:47.999Z,1.93
2023-03-02T23:44:47.967Z,2.48
2023-03-02T23:45:47.949Z,2.36
2023-03-02T23:46:47.881Z,2.70
2023-03-02T23:47:47.816Z,2.39
2023-03-02T23:48:47.773Z,3.85
